Latest Weather Observations for Mount William

IDV60801

Issued at 4:02 pm EST Friday 29 April 2016 (issued every 30 minutes, with the page automatically refreshed every 10 minutes)

About weather observations | Map of weather stations | Latest weather observations for VIC | Other Formats
Station Details ID: 079103 Name: MOUNT WILLIAM Lat: -37.30 Lon: 142.60 Height: 1150.0 m
Data from the previous 72 hours. | See also: Recent months at Mount William
Date/Time
EST
Temp
°C
App
Temp
°C
Dew
Point
Rel
Hum
%
Delta-T
°C
Wind Press
QNH
hPa
Press
MSL
hPa
Rain
since 9 am
mm
Dir
 
Spd
km/h
Gust
km/h
Spd
kts
Gust
kts
29/04:00pm 10.1 4.5 10.0 99 0.1 NNW 30 44 16 24 - - 4.4
29/03:30pm 9.9 3.8 9.8 99 0.1 NNW 32 46 17 25 - - 4.4
29/03:00pm 9.7 3.4 9.6 99 0.1 NNW 33 57 18 31 - - 4.2
29/02:40pm 9.8 2.4 9.7 99 0.1 NNW 39 61 21 33 - - 4.2
29/02:30pm 9.8 3.1 9.7 99 0.1 NNW 35 52 19 28 - - 4.2
29/02:00pm 9.8 3.5 9.7 99 0.1 NW 33 57 18 31 - - 4.2
29/01:36pm 9.6 2.1 9.5 99 0.1 NNW 39 57 21 31 - - 4.2
29/01:30pm 9.5 2.0 9.4 99 0.1 NNW 39 54 21 29 - - 4.2
29/01:14pm 9.5 3.1 9.4 99 0.1 NW 33 59 18 32 - - 4.2
29/01:00pm 9.6 2.9 9.5 99 0.1 NW 35 54 19 29 - - 4.0
29/12:30pm 9.6 3.2 9.5 99 0.1 NW 33 54 18 29 - - 3.2
29/12:00pm 9.7 2.6 9.6 99 0.1 NW 37 57 20 31 - - 1.8
29/11:42am 9.8 2.7 9.7 99 0.1 NW 37 57 20 31 - - 1.2
29/11:30am 9.7 3.4 9.6 99 0.1 NW 33 48 18 26 - - 1.2
29/11:00am 9.8 3.7 9.7 99 0.1 NW 32 48 17 26 - - 1.0
29/10:53am 9.7 3.4 9.6 99 0.1 WNW 33 54 18 29 - - 0.8
29/10:30am 9.6 2.1 9.5 99 0.1 WNW 39 56 21 30 - - 0.6
29/10:00am 9.6 1.3 9.5 99 0.1 WNW 43 56 23 30 - - 0.0
29/09:43am 9.6 1.7 9.5 99 0.1 WNW 41 61 22 33 - - 0.0
29/09:30am 9.7 1.5 9.6 99 0.1 W 43 59 23 32 - - 0.0
29/09:00am 9.7 1.4 9.4 98 0.2 W 43 54 23 29 - - 1.2
29/08:30am 10.3 1.7 8.7 90 0.8 W 44 61 24 33 - - 1.2
29/08:00am 10.7 2.1 8.1 84 1.3 W 43 57 23 31 - - 1.2
29/07:30am 10.5 2.5 7.4 81 1.6 W 39 50 21 27 - - 1.2
29/07:04am 11.1 3.0 7.2 77 2.0 W 39 57 21 31 - - 1.2
29/07:00am 11.4 2.9 7.1 75 2.2 W 41 57 22 31 - - 1.2
29/06:30am 10.5 2.6 7.9 84 1.3 WNW 39 52 21 28 - - 1.2
29/06:00am 9.7 0.6 8.5 92 0.6 WNW 46 65 25 35 - - 1.2
29/05:57am 9.8 1.1 8.6 92 0.6 WNW 44 65 24 35 - - 1.2
29/05:42am 10.3 1.6 8.6 89 0.9 NW 44 65 24 35 - - 1.2
29/05:30am 11.8 3.2 8.1 78 1.9 NNW 43 65 23 35 - - 0.6
29/05:21am 13.5 3.3 7.1 65 3.3 NNW 50 72 27 39 - - 0.4
29/05:00am 14.1 6.8 7.2 63 3.6 N 35 57 19 31 - - 0.4
29/04:42am 14.4 7.2 5.2 54 4.6 N 32 56 17 30 - - 0.4
29/04:30am 14.3 6.7 5.7 56 4.4 NNW 35 44 19 24 - - 0.4
29/04:27am 14.3 7.1 5.9 57 4.3 NNW 33 43 18 23 - - 0.4
29/04:00am 14.1 7.0 5.5 56 4.3 NW 32 48 17 26 - - 0.4
29/03:30am 14.1 6.9 5.2 55 4.5 NW 32 48 17 26 - - 0.4
29/03:00am 13.8 6.0 4.7 54 4.5 NW 35 50 19 27 - - 0.4
29/02:47am 14.0 6.4 3.8 50 5.0 NW 33 54 18 29 - - 0.4
29/02:30am 14.3 7.0 4.6 52 4.8 NW 32 48 17 26 - - 0.4
29/02:00am 14.2 5.5 4.2 51 4.9 NNW 39 52 21 28 - - 0.4
29/01:31am 14.6 5.6 4.3 50 5.1 NNW 41 59 22 32 - - 0.4
29/01:30am 14.4 5.4 4.4 51 4.9 NNW 41 54 22 29 - - 0.4
29/01:00am 14.9 5.8 4.0 48 5.3 N 41 65 22 35 - - 0.4
29/12:53am 14.9 5.8 4.0 48 5.3 N 41 63 22 34 - - 0.4
29/12:30am 14.4 6.0 5.7 56 4.4 NNW 39 56 21 30 - - 0.4
29/12:00am 13.4 7.4 7.0 65 3.3 NNW 28 50 15 27 - - 0.4
 
Date/Time
EST
Temp
°C
App
Temp
°C
Dew
Point
Rel
Hum
%
Delta-T
°C
Wind Press
QNH
hPa
Press
MSL
hPa
Rain
since 9 am
mm
Dir
 
Spd
km/h
Gust
km/h
Spd
kts
Gust
kts
28/11:35pm 14.3 6.4 6.2 58 4.1 N 37 61 20 33 - - 0.4
28/11:30pm 13.9 6.4 6.5 61 3.8 N 35 48 19 26 - - 0.4
28/11:00pm 14.0 7.2 6.8 62 3.7 N 32 46 17 25 - - 0.4
28/10:44pm 14.2 7.1 6.3 59 4.0 N 33 52 18 28 - - 0.4
28/10:30pm 14.1 7.3 6.7 61 3.8 N 32 46 17 25 - - 0.4
28/10:04pm 14.2 8.0 6.3 59 4.0 N 28 48 15 26 - - 0.4
28/10:00pm 14.1 7.6 6.7 61 3.8 N 30 46 16 25 - - 0.4
28/09:30pm 13.8 7.4 7.1 64 3.5 N 30 50 16 27 - - 0.4
28/09:04pm 13.7 6.5 7.5 66 3.2 N 35 54 19 29 - - 0.4
28/09:00pm 13.7 6.5 7.5 66 3.2 N 35 54 19 29 - - 0.4
28/08:42pm 13.4 7.6 7.8 69 2.9 NNW 28 50 15 27 - - 0.4
28/08:30pm 12.6 7.3 8.5 76 2.2 NW 26 35 14 19 - - 0.4
28/08:00pm 12.1 7.3 8.9 81 1.7 NW 24 35 13 19 - - 0.4
28/07:30pm 12.3 6.8 9.3 82 1.6 NW 28 37 15 20 - - 0.2
28/07:00pm 11.9 6.3 8.9 82 1.6 WNW 28 37 15 20 - - 0.2
28/06:30pm 11.6 6.5 9.2 85 1.3 WNW 26 35 14 19 - - 0.2
28/06:00pm 12.0 6.9 9.2 83 1.5 NW 26 37 14 20 - - 0.2
28/05:42pm 12.3 6.8 9.0 80 1.8 NW 28 46 15 25 - - 0.2
28/05:30pm 12.4 7.2 8.9 79 1.9 NW 26 41 14 22 - - 0.2
28/05:00pm 12.9 7.2 8.4 74 2.4 NW 28 37 15 20 - - 0.2
28/04:30pm 12.4 7.4 9.4 82 1.6 WNW 26 37 14 20 - - 0.2
28/04:00pm 11.9 7.0 10.0 88 1.0 WNW 26 33 14 18 - - 0.2
28/03:30pm 11.7 7.2 10.1 90 0.9 WNW 24 35 13 19 - - 0.2
28/03:00pm 12.4 7.8 9.6 83 1.5 WNW 24 32 13 17 - - 0.2
28/02:30pm 13.4 9.5 9.5 77 2.1 NW 20 32 11 17 - - 0.2
28/02:00pm 13.5 8.0 9.0 74 2.4 WNW 28 39 15 21 - - 0.2
28/01:30pm 13.7 8.4 8.5 71 2.8 WNW 26 35 14 19 - - 0.2
28/01:00pm 13.5 8.3 8.8 73 2.5 NW 26 37 14 20 - - 0.2
28/12:30pm 13.4 7.5 8.9 74 2.4 NW 30 43 16 23 - - 0.2
28/12:00pm 12.3 5.8 9.0 80 1.8 WNW 33 44 18 24 - - 0.2
28/11:43am 11.8 5.5 9.7 87 1.1 WNW 33 52 18 28 - - 0.2
28/11:30am 11.7 5.6 9.9 89 1.0 WNW 32 41 17 22 - - 0.0
28/11:00am 11.8 6.8 9.4 85 1.3 W 26 32 14 17 - - 0.0
28/10:30am 12.6 7.8 8.7 77 2.1 W 24 35 13 19 - - 0.0
28/10:00am 13.3 8.5 7.5 68 3.0 W 22 33 12 18 - - 0.0
28/09:30am 13.2 8.4 7.2 67 3.1 WNW 22 32 12 17 - - 0.0
28/09:00am 13.2 8.0 7.2 67 3.1 W 24 32 13 17 - - 0.0
28/08:30am 13.3 6.6 7.3 67 3.1 WNW 32 41 17 22 - - 0.0
28/08:00am 13.0 7.0 8.5 74 2.4 NW 30 43 16 23 - - 0.0
28/07:30am 13.1 6.5 8.4 73 2.5 WNW 33 52 18 28 - - 0.0
28/07:11am 13.7 6.9 7.9 68 3.1 WNW 33 54 18 29 - - 0.0
28/07:00am 13.0 5.8 7.5 69 2.9 WNW 35 48 19 26 - - 0.0
28/06:42am 12.4 4.6 8.3 76 2.2 WNW 39 57 21 31 - - 0.0
28/06:30am 11.8 3.6 8.1 78 1.9 WNW 41 54 22 29 - - 0.0
28/06:01am 10.8 1.9 6.7 76 2.1 WNW 43 61 23 33 - - 0.0
28/06:00am 10.8 1.7 6.6 75 2.1 WNW 44 61 24 33 - - 0.0
28/05:30am 13.0 3.5 4.7 57 4.1 W 44 61 24 33 - - 0.0
28/05:01am 14.1 5.8 4.1 51 4.9 WNW 37 57 20 31 - - 0.0
28/05:00am 14.2 5.9 4.2 51 4.9 WNW 37 54 20 29 - - 0.0
28/04:47am 14.4 6.1 4.1 50 5.0 WNW 37 56 20 30 - - 0.0
28/04:30am 14.6 7.0 3.7 48 5.3 WNW 33 50 18 27 - - 0.0
28/04:05am 15.0 7.3 3.5 46 5.6 NW 33 52 18 28 - - 0.0
28/04:00am 15.0 6.9 3.5 46 5.6 NW 35 48 19 26 - - 0.0
28/03:30am 15.1 7.0 3.3 45 5.7 NW 35 54 19 29 - - 0.0
28/03:18am 15.1 6.6 3.3 45 5.7 NW 37 56 20 30 - - 0.0
28/03:00am 15.2 6.4 3.4 45 5.7 NW 39 48 21 26 - - 0.0
28/02:30am 15.2 7.1 3.4 45 5.7 NW 35 46 19 25 - - 0.0
28/02:00am 15.7 6.1 3.5 44 6.0 NW 43 57 23 31 - - 0.0
28/01:30am 15.0 6.2 3.5 46 5.6 NW 39 57 21 31 - - 0.0
28/01:00am 15.1 6.2 3.3 45 5.7 NW 39 65 21 35 - - 0.0
28/12:30am 15.2 5.5 3.0 44 5.9 NNW 43 65 23 35 - - 0.0
28/12:00am 15.0 4.0 3.2 45 5.7 NNW 50 74 27 40 - - 0.0
 
Date/Time
EST
Temp
°C
App
Temp
°C
Dew
Point
Rel
Hum
%
Delta-T
°C
Wind Press
QNH
hPa
Press
MSL
hPa
Rain
since 9 am
mm
Dir
 
Spd
km/h
Gust
km/h
Spd
kts
Gust
kts
27/11:30pm 15.0 4.1 3.5 46 5.6 NNW 50 70 27 38 - - 0.0
27/11:00pm 15.1 3.5 3.9 47 5.5 NNW 54 74 29 40 - - 0.0
27/10:30pm 15.2 4.0 4.0 47 5.5 NNW 52 72 28 39 - - 0.0
27/10:00pm 15.3 4.1 4.1 47 5.5 N 52 76 28 41 - - 0.0
27/09:30pm 15.4 4.6 4.2 47 5.5 N 50 76 27 41 - - 0.0
27/09:00pm 15.1 5.1 4.2 48 5.4 N 46 78 25 42 - - 0.0
27/08:30pm 15.2 5.2 4.3 48 5.4 N 46 70 25 38 - - 0.0
27/08:02pm 15.2 5.8 4.3 48 5.4 N 43 63 23 34 - - 0.0
27/08:00pm 15.1 6.0 4.2 48 5.4 N 41 59 22 32 - - 0.0
27/07:30pm 15.5 6.8 4.3 47 5.6 N 39 57 21 31 - - 0.0
27/07:00pm 15.8 6.2 4.2 46 5.8 NNW 44 65 24 35 - - 0.0
27/06:30pm 16.0 6.6 4.4 46 5.8 N 43 65 23 35 - - 0.0
27/06:00pm 16.0 7.0 4.4 46 5.8 N 41 61 22 33 - - 0.0
27/05:30pm 16.1 7.1 4.5 46 5.8 NNW 41 61 22 33 - - 0.0
27/05:09pm 16.2 7.9 4.3 45 5.9 NNW 37 57 20 31 - - 0.0
27/05:00pm 16.3 7.3 4.4 45 5.9 NNW 41 57 22 31 - - 0.0
27/04:30pm 16.7 8.1 4.4 44 6.2 NNW 39 57 21 31 - - 0.0
27/04:03pm 17.0 8.0 4.3 43 6.4 NNW 41 61 22 33 - - 0.0
27/04:00pm 16.9 7.9 4.3 43 6.3 NNW 41 59 22 32 - - 0.0
27/03:30pm 16.9 7.5 4.6 44 6.2 NNW 43 78 23 42 - - 0.0
27/03:01pm 17.6 9.0 4.9 43 6.5 NNW 39 63 21 34 - - 0.0
27/03:00pm 17.5 8.9 4.8 43 6.4 NNW 39 56 21 30 - - 0.0
27/02:30pm 17.1 8.5 4.8 44 6.2 NNW 39 61 21 33 - - 0.0
27/02:01pm 16.8 7.2 4.5 44 6.2 NNW 44 63 24 34 - - 0.0
27/02:00pm 16.8 7.2 4.5 44 6.2 NW 44 63 24 34 - - 0.0
27/01:30pm 17.8 8.4 4.7 42 6.7 NNW 43 65 23 35 - - 0.0
27/01:00pm 16.9 7.4 4.9 45 6.1 NNW 44 67 24 36 - - 0.0
27/12:30pm 16.8 7.3 4.8 45 6.1 NW 44 69 24 37 - - 0.0
27/12:00pm 16.7 7.3 5.3 47 5.8 NNW 44 63 24 34 - - 0.0
27/11:30am 16.2 6.0 5.2 48 5.6 NNW 48 69 26 37 - - 0.0
27/11:00am 15.4 4.8 5.3 51 5.1 NNW 50 76 27 41 - - 0.0
27/10:30am 15.4 5.7 5.9 53 4.9 NW 46 69 25 37 - - 0.0
27/10:00am 14.7 3.8 5.5 54 4.6 NW 52 72 28 39 - - 0.0
27/09:30am 13.5 2.6 5.4 58 4.1 NW 52 83 28 45 - - 0.0
27/09:00am 13.4 2.5 5.3 58 4.0 NW 52 76 28 41 - - 0.0
27/08:30am 13.3 2.3 5.0 57 4.1 NNW 52 76 28 41 - - 0.0
27/08:00am 13.0 2.0 4.9 58 4.0 NW 52 72 28 39 - - 0.0
27/07:30am 13.2 2.1 4.6 56 4.2 NNW 52 78 28 42 - - 0.0
27/07:00am 13.5 0.3 4.6 55 4.4 NNW 63 85 34 46 - - 0.0
27/06:30am 13.1 -0.1 4.5 56 4.2 NNW 63 87 34 47 - - 0.0
27/06:00am 12.9 -0.7 4.1 55 4.3 NNW 65 87 35 47 - - 0.0
27/05:30am 13.0 -0.3 3.9 54 4.4 NNW 63 85 34 46 - - 0.0
27/05:00am 12.8 -0.2 3.5 53 4.4 NNW 61 85 33 46 - - 0.0
27/04:30am 13.0 0.0 3.7 53 4.5 NNW 61 85 33 46 - - 0.0
27/04:00am 13.2 0.3 3.8 53 4.5 N 61 91 33 49 - - 0.0
27/03:30am 13.2 1.6 3.8 53 4.5 N 54 85 29 46 - - 0.0
27/03:00am 13.4 1.2 3.5 51 4.8 N 57 89 31 48 - - 0.0
27/02:30am 13.2 2.3 3.3 51 4.7 N 50 83 27 45 - - 0.0
27/02:00am 13.4 2.0 2.6 48 5.1 N 52 87 28 47 - - 0.0
27/01:30am 13.4 2.4 3.2 50 4.9 N 50 80 27 43 - - 0.0
27/01:23am 13.4 1.7 3.2 50 4.9 N 54 98 29 53 - - 0.0
27/01:21am 13.6 2.2 3.1 49 5.0 N 52 98 28 53 - - 0.0
27/01:00am 13.6 1.2 2.8 48 5.1 N 57 93 31 50 - - 0.0
27/12:30am 13.8 3.5 2.7 47 5.3 N 46 78 25 42 - - 0.0
27/12:00am 13.8 3.1 2.7 47 5.3 N 48 87 26 47 - - 0.0
 
Date/Time
EST
Temp
°C
App
Temp
°C
Dew
Point
Rel
Hum
%
Delta-T
°C
Wind Press
QNH
hPa
Press
MSL
hPa
Rain
since 9 am
mm
Dir
 
Spd
km/h
Gust
km/h
Spd
kts
Gust
kts
26/11:53pm 13.9 3.2 2.5 46 5.4 N 48 87 26 47 - - 0.0
26/11:45pm 13.9 3.3 3.1 48 5.2 N 48 89 26 48 - - 0.0
26/11:36pm 14.1 2.8 3.3 48 5.2 N 52 89 28 48 - - 0.0
26/11:30pm 13.9 4.3 3.4 49 5.1 N 43 69 23 37 - - 0.0
26/11:00pm 14.1 3.9 3.0 47 5.3 N 46 69 25 37 - - 0.0
26/10:30pm 14.1 5.1 2.4 45 5.5 N 39 65 21 35 - - 0.0
26/10:00pm 14.2 4.8 2.1 44 5.7 N 41 63 22 34 - - 0.0
26/09:30pm 14.2 4.8 2.1 44 5.7 N 41 67 22 36 - - 0.0
26/09:00pm 13.9 5.1 1.5 43 5.7 N 37 59 20 32 - - 0.0
26/08:30pm 14.3 5.3 2.2 44 5.7 N 39 59 21 32 - - 0.0
26/08:00pm 14.5 6.2 2.4 44 5.7 N 35 59 19 32 - - 0.0
26/07:40pm 14.6 6.4 2.5 44 5.7 N 35 54 19 29 - - 0.0
26/07:30pm 14.7 6.5 2.6 44 5.8 N 35 54 19 29 - - 0.0
26/07:00pm 14.6 6.3 2.2 43 5.8 N 35 56 19 30 - - 0.0
26/06:30pm 14.8 7.1 2.4 43 5.9 N 32 56 17 30 - - 0.0
26/06:01pm 14.9 7.7 2.8 44 5.8 N 30 50 16 27 - - 0.0
26/06:00pm 14.9 8.0 2.8 44 5.8 N 28 44 15 24 - - 0.0
26/05:50pm 14.9 8.0 2.8 44 5.8 N 28 48 15 26 - - 0.0
26/05:30pm 15.1 8.5 2.3 42 6.1 N 26 46 14 25 - - 0.0
26/05:00pm 15.8 8.1 2.2 40 6.5 N 32 46 17 25 - - 0.0
26/04:47pm 16.0 9.0 2.1 39 6.6 NNE 28 48 15 26 - - 0.0
26/04:30pm 16.3 10.2 2.7 40 6.6 NNE 24 39 13 21 - - 0.0

Other Formats:

Comma delimited format used in spreadsheet applications
http://www.bom.gov.au/fwo/IDV60801/IDV60801.94833.axf

JavaScript Object Notation format (JSON) in row-major order
http://www.bom.gov.au/fwo/IDV60801/IDV60801.94833.json